Time;durP1;ratioP1;P1;durP2;ratioP2;P2;SDS_P1;SDS_P2;PMS_P1;PMS_P2;Temp;Humidity;BMP_temperature;BMP_pressure;BME280_temperature;BME280_humidity;BME280_pressure;Samples;Min_cycle;Max_cycle;Signal;HPM_P1;HPM_P2
2023/08/24 00:01:12;;;;;;;4.70;3.95;;;22.20;69.70;;;;;;5012838;28;20072;-52
2023/08/24 00:03:37;;;;;;;6.03;3.85;;;22.20;69.80;;;;;;5012635;28;20041;-53
2023/08/24 00:06:03;;;;;;;5.13;4.15;;;22.20;70.00;;;;;;5012452;28;20038;-53
2023/08/24 00:08:29;;;;;;;4.85;4.03;;;22.20;69.90;;;;;;5012401;28;20022;-55
2023/08/24 00:10:54;;;;;;;5.70;3.90;;;22.20;70.10;;;;;;5012578;28;20029;-52
2023/08/24 00:13:20;;;;;;;4.70;4.05;;;22.20;70.10;;;;;;5012481;28;20601;-54
2023/08/24 00:15:46;;;;;;;4.88;3.83;;;22.20;69.60;;;;;;5012661;28;20022;-52
2023/08/24 00:18:12;;;;;;;6.05;3.80;;;22.20;69.50;;;;;;5012877;28;20026;-54
2023/08/24 00:20:38;;;;;;;5.88;3.80;;;22.20;69.40;;;;;;5013047;28;20026;-54
2023/08/24 00:23:04;;;;;;;4.63;3.58;;;22.20;69.10;;;;;;5012480;28;20026;-53
2023/08/24 00:25:30;;;;;;;5.63;4.20;;;22.20;69.10;;;;;;5012486;28;20056;-53
2023/08/24 00:27:56;;;;;;;5.80;3.92;;;22.20;69.50;;;;;;5012434;28;20496;-53
2023/08/24 00:30:23;;;;;;;6.30;4.32;;;22.20;69.60;;;;;;5012469;28;20022;-53
2023/08/24 00:32:48;;;;;;;7.43;4.97;;;22.20;69.90;;;;;;5012684;28;20041;-51
2023/08/24 00:35:14;;;;;;;7.90;4.45;;;22.20;70.10;;;;;;5012570;28;20022;-52
2023/08/24 00:37:40;;;;;;;5.18;4.45;;;22.10;70.30;;;;;;5013491;28;20533;-55
2023/08/24 00:40:10;;;;;;;6.28;4.40;;;22.10;70.50;;;;;;5016378;28;20026;-52
2023/08/24 00:42:39;;;;;;;8.43;4.85;;;22.00;70.70;;;;;;5015922;28;20018;-53
2023/08/24 00:45:07;;;;;;;6.20;4.32;;;22.00;70.90;;;;;;5016209;28;20478;-52
2023/08/24 00:47:33;;;;;;;5.47;4.80;;;22.00;71.10;;;;;;5016211;28;20022;-52
2023/08/24 00:50:00;;;;;;;6.68;5.13;;;22.00;71.30;;;;;;5015808;28;20018;-54
2023/08/24 00:52:29;;;;;;;6.32;5.10;;;22.00;71.50;;;;;;5016237;28;20021;-53
2023/08/24 00:54:55;;;;;;;7.38;5.10;;;22.00;71.60;;;;;;5016037;28;20036;-53
2023/08/24 00:57:21;;;;;;;7.68;5.55;;;21.90;71.60;;;;;;5015979;28;20072;-53
2023/08/24 00:59:48;;;;;;;7.95;5.40;;;21.90;71.70;;;;;;5016384;28;20097;-54
2023/08/24 01:02:13;;;;;;;6.50;5.32;;;21.90;71.90;;;;;;5015771;28;20030;-53
2023/08/24 01:04:42;;;;;;;7.72;6.05;;;21.80;72.00;;;;;;5015584;28;20040;-53
2023/08/24 01:07:09;;;;;;;9.38;6.30;;;21.80;72.20;;;;;;5016322;28;20366;-52
2023/08/24 01:09:35;;;;;;;8.05;6.22;;;21.80;72.00;;;;;;5015702;28;20018;-53
2023/08/24 01:12:12;;;;;;;6.75;6.03;;;21.80;72.10;;;;;;5015546;28;20390;-53
2023/08/24 01:15:03;;;;;;;7.60;6.28;;;21.80;72.50;;;;;;5015851;28;20029;-54
2023/08/24 01:17:30;;;;;;;9.10;6.57;;;21.80;72.40;;;;;;5015553;28;20018;-53
2023/08/24 01:19:58;;;;;;;10.18;7.13;;;21.70;72.40;;;;;;5015492;28;20033;-53
2023/08/24 01:22:27;;;;;;;8.02;6.47;;;21.70;72.60;;;;;;5015373;28;20049;-55
2023/08/24 01:25:23;;;;;;;8.27;6.40;;;21.70;72.80;;;;;;5015244;28;20084;-52
2023/08/24 01:27:50;;;;;;;7.75;5.95;;;21.70;72.70;;;;;;5015089;28;20501;-53
2023/08/24 01:30:17;;;;;;;8.00;6.13;;;21.70;73.00;;;;;;5015300;28;20072;-54
2023/08/24 01:32:43;;;;;;;10.40;6.57;;;21.70;73.30;;;;;;5015248;28;20543;-52
2023/08/24 01:35:09;;;;;;;7.88;6.00;;;21.70;73.50;;;;;;5015422;28;20026;-54
2023/08/24 01:37:35;;;;;;;8.18;6.15;;;21.60;73.50;;;;;;5015502;28;20101;-53
2023/08/24 01:40:16;;;;;;;7.57;6.07;;;21.60;73.60;;;;;;5015252;28;20022;-53
2023/08/24 01:42:42;;;;;;;;;;;21.60;73.70;;;;;;5015586;28;20025;-54
2023/08/24 01:45:10;;;;;;;6.85;5.95;;;21.50;73.30;;;;;;5015262;28;19913;-53
2023/08/24 01:47:37;;;;;;;8.63;6.45;;;21.50;73.90;;;;;;5014885;28;20022;-53
2023/08/24 01:50:03;;;;;;;8.98;5.97;;;21.50;74.00;;;;;;5014386;28;20041;-51
2023/08/24 01:52:29;;;;;;;7.75;5.97;;;21.50;74.00;;;;;;5015239;28;20021;-53
2023/08/24 01:54:55;;;;;;;7.65;5.72;;;21.50;74.10;;;;;;5014737;28;20091;-53
2023/08/24 01:57:21;;;;;;;9.48;6.22;;;21.50;74.30;;;;;;5014600;28;20118;-51
2023/08/24 01:59:46;;;;;;;9.35;5.82;;;21.50;74.40;;;;;;5014543;28;20038;-53
2023/08/24 02:02:12;;;;;;;7.10;5.47;;;21.50;74.40;;;;;;5014609;28;20026;-52
2023/08/24 02:04:38;;;;;;;8.93;5.68;;;21.60;74.20;;;;;;5014994;28;20086;-54
2023/08/24 02:07:03;;;;;;;8.75;5.43;;;21.50;74.00;;;;;;5014936;28;20052;-51
2023/08/24 02:09:30;;;;;;;6.95;5.28;;;21.60;73.90;;;;;;5014569;28;20118;-55
2023/08/24 02:11:55;;;;;;;8.77;6.05;;;21.60;73.80;;;;;;5014663;28;20489;-53
2023/08/24 02:14:21;;;;;;;11.18;6.72;;;21.60;73.80;;;;;;5014180;28;20042;-54
2023/08/24 02:16:47;;;;;;;9.15;6.35;;;21.60;73.70;;;;;;5014622;28;20025;-53
2023/08/24 02:19:12;;;;;;;6.68;5.63;;;21.70;73.80;;;;;;5014245;28;20474;-52
2023/08/24 02:21:38;;;;;;;9.55;6.70;;;21.70;73.80;;;;;;5014107;28;20494;-54
2023/08/24 02:24:05;;;;;;;8.45;6.43;;;21.70;73.90;;;;;;5014135;28;20398;-53
2023/08/24 02:26:30;;;;;;;9.43;5.93;;;21.70;73.90;;;;;;5014115;28;20516;-54
2023/08/24 02:28:57;;;;;;;9.63;6.72;;;21.60;74.00;;;;;;5014052;28;20040;-54
2023/08/24 02:31:23;;;;;;;8.65;6.03;;;21.60;74.00;;;;;;5014466;28;20549;-52
2023/08/24 02:33:49;;;;;;;8.25;5.68;;;21.70;74.10;;;;;;5013846;28;20029;-54
2023/08/24 02:36:14;;;;;;;9.23;6.15;;;21.60;74.00;;;;;;5014073;28;20359;-51
2023/08/24 02:38:40;;;;;;;10.07;6.93;;;21.60;74.10;;;;;;5014281;28;20152;-52
2023/08/24 02:41:07;;;;;;;9.50;6.45;;;21.60;74.10;;;;;;5013706;28;20033;-52
2023/08/24 02:43:33;;;;;;;10.38;7.07;;;21.60;74.10;;;;;;5013826;28;20389;-55
2023/08/24 02:46:09;;;;;;;10.75;6.65;;;21.60;74.20;;;;;;5013863;28;20037;-54
2023/08/24 02:48:35;;;;;;;11.80;7.18;;;21.60;74.20;;;;;;5014548;28;20033;-54
2023/08/24 02:51:03;;;;;;;11.73;7.40;;;21.50;74.30;;;;;;5013932;28;20030;-54
2023/08/24 02:53:29;;;;;;;11.63;7.47;;;21.50;74.30;;;;;;5013763;28;20033;-52
2023/08/24 02:55:58;;;;;;;11.13;7.80;;;21.50;74.50;;;;;;5013518;28;20045;-52
2023/08/24 02:58:23;;;;;;;12.85;8.32;;;21.50;74.50;;;;;;5014004;28;20038;-53
2023/08/24 03:00:49;;;;;;;12.77;7.75;;;21.50;74.70;;;;;;5013421;28;20469;-53
2023/08/24 03:03:15;;;;;;;12.65;7.82;;;21.50;74.70;;;;;;5013206;28;20485;-53
2023/08/24 03:05:41;;;;;;;9.93;7.50;;;21.50;74.70;;;;;;5013697;28;20397;-54
2023/08/24 03:08:06;;;;;;;12.55;8.15;;;21.50;74.70;;;;;;5013424;28;20116;-52
2023/08/24 03:10:36;;;;;;;12.98;8.63;;;21.50;74.60;;;;;;5013547;28;20125;-53
2023/08/24 03:13:02;;;;;;;10.52;8.05;;;21.50;74.70;;;;;;5013518;28;20293;-54
2023/08/24 03:15:28;;;;;;;9.88;7.30;;;21.50;74.80;;;;;;5013661;28;20429;-54
2023/08/24 03:17:54;;;;;;;9.52;7.90;;;21.40;74.80;;;;;;5013757;28;20029;-54
2023/08/24 03:20:19;;;;;;;7.47;6.68;;;21.50;75.00;;;;;;5012850;28;20041;-53
2023/08/24 03:22:45;;;;;;;8.65;6.95;;;21.50;75.80;;;;;;5013505;28;20034;-52
2023/08/24 03:25:11;;;;;;;9.52;7.35;;;21.50;76.00;;;;;;5013042;28;20567;-54
2023/08/24 03:27:38;;;;;;;9.23;7.68;;;21.60;76.10;;;;;;5013232;28;20104;-54
2023/08/24 03:30:04;;;;;;;9.13;6.85;;;21.60;75.80;;;;;;5013254;28;20037;-54
2023/08/24 03:32:30;;;;;;;9.73;7.50;;;21.70;75.70;;;;;;5013250;28;20109;-52
2023/08/24 03:35:03;;;;;;;7.65;6.20;;;21.70;75.70;;;;;;5013028;28;20113;-54
2023/08/24 03:37:29;;;;;;;6.20;4.97;;;21.70;76.70;;;;;;5013335;28;20033;-53
2023/08/24 03:39:54;;;;;;;5.43;4.80;;;21.80;77.40;;;;;;5013634;28;20385;-53
2023/08/24 03:42:20;;;;;;;7.68;4.95;;;21.80;77.30;;;;;;5013121;28;20052;-53
2023/08/24 03:44:45;;;;;;;6.22;4.50;;;21.90;77.20;;;;;;5012891;28;20036;-53
2023/08/24 03:47:11;;;;;;;5.85;5.00;;;22.00;77.10;;;;;;5013385;28;20130;-55
2023/08/24 03:49:37;;;;;;;6.53;4.65;;;22.00;76.80;;;;;;5012833;28;20040;-53
2023/08/24 03:52:03;;;;;;;6.07;3.95;;;22.10;76.70;;;;;;5012941;28;20374;-54
2023/08/24 03:54:29;;;;;;;5.65;3.70;;;22.10;76.10;;;;;;5012870;28;20045;-54
2023/08/24 03:56:54;;;;;;;7.30;3.83;;;22.20;75.90;;;;;;5012632;28;20061;-53
2023/08/24 03:59:20;;;;;;;5.72;3.78;;;22.20;75.30;;;;;;5013032;28;20022;-54
2023/08/24 04:01:45;;;;;;;4.28;3.53;;;22.30;74.70;;;;;;5012984;28;20432;-52
2023/08/24 04:04:11;;;;;;;5.30;3.55;;;22.30;74.50;;;;;;5012962;28;20061;-53
2023/08/24 04:06:37;;;;;;;4.75;3.20;;;22.40;73.50;;;;;;5012683;28;20026;-53
2023/08/24 04:09:03;;;;;;;4.53;3.00;;;22.50;72.10;;;;;;5012689;28;20093;-53
2023/08/24 04:11:29;;;;;;;5.07;3.05;;;22.50;71.70;;;;;;5012695;28;20030;-53
2023/08/24 04:13:55;;;;;;;3.83;2.80;;;22.60;71.00;;;;;;5016126;28;20100;-54
2023/08/24 04:16:20;;;;;;;3.17;2.78;;;22.70;70.80;;;;;;5017369;28;20033;-54
2023/08/24 04:18:46;;;;;;;4.90;2.70;;;22.80;70.50;;;;;;5016923;28;20037;-55
2023/08/24 04:21:11;;;;;;;4.03;2.90;;;22.90;70.30;;;;;;5016799;28;20512;-54
2023/08/24 04:23:37;;;;;;;3.95;3.00;;;22.90;70.40;;;;;;5016573;28;20026;-52
2023/08/24 04:26:04;;;;;;;3.47;2.80;;;23.00;70.20;;;;;;5016273;28;20457;-54
2023/08/24 04:28:30;;;;;;;3.75;2.90;;;23.10;70.10;;;;;;5016456;28;20401;-52
2023/08/24 04:30:57;;;;;;;3.53;2.80;;;23.20;70.20;;;;;;5016092;28;20105;-54
2023/08/24 04:33:22;;;;;;;4.35;3.10;;;23.30;70.30;;;;;;5016084;28;20397;-53
2023/08/24 04:35:51;;;;;;;5.32;3.40;;;23.30;71.00;;;;;;5016220;28;20542;-52
2023/08/24 04:38:17;;;;;;;4.57;3.30;;;23.40;70.20;;;;;;5016426;28;20460;-54
2023/08/24 04:40:53;;;;;;;4.50;3.00;;;23.50;70.30;;;;;;5016136;28;20061;-52
2023/08/24 04:43:21;;;;;;;4.68;3.22;;;23.60;70.20;;;;;;5015821;28;20030;-53
2023/08/24 04:45:54;;;;;;;3.88;2.92;;;23.70;70.10;;;;;;5016263;28;20061;-53
2023/08/24 04:48:21;;;;;;;4.90;3.63;;;23.70;69.90;;;;;;5016119;28;20436;-55
2023/08/24 04:50:47;;;;;;;5.05;3.72;;;23.80;70.40;;;;;;5015773;28;20029;-53
2023/08/24 04:53:22;;;;;;;4.90;3.88;;;23.80;70.30;;;;;;5030753;28;20126;-55
2023/08/24 04:55:48;;;;;;;6.90;3.60;;;23.90;70.00;;;;;;5015655;28;20401;-54
2023/08/24 04:58:14;;;;;;;5.35;3.63;;;23.90;70.00;;;;;;5015670;28;20026;-55
2023/08/24 05:00:39;;;;;;;5.25;3.70;;;24.00;69.60;;;;;;5015887;28;20049;-53
2023/08/24 05:03:06;;;;;;;6.13;3.72;;;24.00;69.40;;;;;;5015668;28;20018;-53
2023/08/24 05:05:35;;;;;;;6.03;3.75;;;24.10;69.60;;;;;;5015595;28;20087;-54
2023/08/24 05:08:03;;;;;;;5.25;3.53;;;24.10;69.50;;;;;;5015329;28;20028;-54
2023/08/24 05:10:33;;;;;;;3.85;3.40;;;24.10;69.40;;;;;;5015640;28;20077;-53
2023/08/24 05:12:59;;;;;;;5.15;3.10;;;24.10;69.50;;;;;;5015714;28;20114;-54
2023/08/24 05:15:25;;;;;;;5.22;3.55;;;24.20;69.60;;;;;;5015286;28;20040;-53
2023/08/24 05:17:54;;;;;;;4.47;3.47;;;24.30;69.10;;;;;;5015368;28;20034;-52
2023/08/24 05:20:20;;;;;;;3.92;3.22;;;24.40;68.70;;;;;;5014985;28;20515;-54
2023/08/24 05:22:47;;;;;;;5.40;3.15;;;24.60;68.50;;;;;;5015002;28;20481;-54
2023/08/24 05:25:13;;;;;;;3.85;3.03;;;24.80;68.00;;;;;;5014822;28;20054;-54
2023/08/24 05:27:39;;;;;;;4.03;3.20;;;24.90;67.20;;;;;;5014330;28;20022;-54
2023/08/24 05:30:06;;;;;;;5.93;3.50;;;25.10;66.50;;;;;;5014630;28;20018;-54
2023/08/24 05:32:31;;;;;;;4.53;2.90;;;25.20;66.20;;;;;;5014645;28;20022;-55
2023/08/24 05:34:57;;;;;;;6.45;3.40;;;25.20;65.40;;;;;;5014517;28;20375;-54
2023/08/24 05:37:24;;;;;;;4.53;3.22;;;25.20;64.70;;;;;;5014286;28;20030;-54
2023/08/24 05:39:50;;;;;;;4.65;3.10;;;25.20;64.50;;;;;;5013382;28;20025;-54
2023/08/24 05:42:15;;;;;;;5.68;3.28;;;25.10;64.80;;;;;;5012768;28;20024;-54
2023/08/24 05:44:41;;;;;;;4.05;2.88;;;25.00;64.80;;;;;;5013497;28;20034;-52
2023/08/24 05:47:07;;;;;;;5.82;3.55;;;25.00;64.80;;;;;;5013590;28;20034;-53
2023/08/24 05:49:32;;;;;;;6.53;3.35;;;24.90;64.60;;;;;;5014386;28;20429;-52
2023/08/24 05:51:58;;;;;;;4.80;3.08;;;24.90;64.50;;;;;;5014004;28;20075;-54
2023/08/24 05:54:24;;;;;;;6.15;3.10;;;24.90;64.40;;;;;;5013103;28;20069;-53
2023/08/24 05:56:49;;;;;;;5.60;2.90;;;24.90;64.10;;;;;;5013510;28;20486;-53
2023/08/24 05:59:15;;;;;;;6.47;2.83;;;24.90;63.90;;;;;;5013690;28;20432;-53
2023/08/24 06:01:41;;;;;;;3.97;3.33;;;24.90;64.00;;;;;;5013296;28;20025;-53
2023/08/24 06:04:08;;;;;;;3.10;2.70;;;25.00;63.80;;;;;;5013363;28;20026;-53
2023/08/24 06:06:34;;;;;;;2.58;2.38;;;25.00;63.50;;;;;;5013385;28;20022;-54
2023/08/24 06:09:00;;;;;;;3.33;2.63;;;25.10;63.60;;;;;;5013827;28;20045;-55
2023/08/24 06:11:26;;;;;;;4.55;3.00;;;25.10;63.20;;;;;;5014020;28;20038;-52
2023/08/24 06:13:53;;;;;;;3.58;2.67;;;25.10;63.20;;;;;;5013428;28;20101;-52
2023/08/24 06:16:19;;;;;;;5.15;3.05;;;25.20;63.30;;;;;;5012157;28;20496;-54
2023/08/24 06:18:45;;;;;;;4.68;3.17;;;25.20;63.20;;;;;;5013449;28;20014;-53
2023/08/24 06:21:11;;;;;;;4.47;3.03;;;25.20;63.60;;;;;;5013616;28;20076;-54
2023/08/24 06:23:36;;;;;;;3.90;2.70;;;25.20;63.40;;;;;;5013374;28;20032;-52
2023/08/24 06:26:04;;;;;;;4.78;3.28;;;25.30;63.00;;;;;;5013271;28;20058;-54
2023/08/24 06:28:30;;;;;;;4.28;3.10;;;25.30;62.80;;;;;;5013379;28;20034;-55
2023/08/24 06:30:56;;;;;;;4.93;2.75;;;25.30;62.70;;;;;;5013139;28;20029;-54
2023/08/24 06:33:26;;;;;;;3.80;2.60;;;25.30;62.50;;;;;;5013313;28;20036;-55
2023/08/24 06:35:52;;;;;;;3.42;2.28;;;25.40;62.20;;;;;;5012941;28;20469;-54
2023/08/24 06:38:17;;;;;;;3.05;2.38;;;25.40;62.30;;;;;;5012366;28;20040;-55
2023/08/24 06:40:43;;;;;;;3.63;2.67;;;25.40;61.80;;;;;;5013234;28;20030;-51
2023/08/24 06:43:09;;;;;;;2.63;2.42;;;25.40;62.20;;;;;;5012791;28;20033;-55
2023/08/24 06:45:34;;;;;;;2.88;2.55;;;25.40;62.50;;;;;;5013437;28;20072;-53
2023/08/24 06:48:00;;;;;;;3.35;2.83;;;25.40;62.00;;;;;;5027600;28;20037;-54
2023/08/24 06:50:26;;;;;;;7.28;2.67;;;25.40;61.90;;;;;;5009416;28;20033;-54
2023/08/24 06:52:51;;;;;;;3.05;2.30;;;25.40;61.60;;;;;;5009319;28;20030;-53
2023/08/24 06:55:17;;;;;;;5.05;2.75;;;25.40;61.40;;;;;;5010171;28;20026;-54
2023/08/24 06:57:48;;;;;;;2.78;2.33;;;25.40;61.60;;;;;;5009253;28;20030;-54
2023/08/24 07:00:15;;;;;;;4.47;2.50;;;25.40;61.50;;;;;;5006858;28;20393;-53
2023/08/24 07:02:40;;;;;;;4.40;2.67;;;25.40;61.80;;;;;;5004248;28;20036;-55
2023/08/24 07:05:08;;;;;;;2.40;2.20;;;25.40;61.80;;;;;;5009146;28;20041;-52
2023/08/24 07:07:34;;;;;;;3.60;2.70;;;25.50;61.80;;;;;;5005437;28;20109;-54
2023/08/24 07:10:00;;;;;;;3.60;2.47;;;25.50;61.60;;;;;;5001899;28;20420;-54
2023/08/24 07:12:26;;;;;;;3.05;2.63;;;25.50;60.80;;;;;;5011398;28;20080;-55
2023/08/24 07:14:51;;;;;;;3.45;2.65;;;25.50;60.80;;;;;;5011076;28;20096;-52
2023/08/24 07:17:18;;;;;;;4.22;2.80;;;25.50;60.60;;;;;;5005347;28;20039;-55
2023/08/24 07:19:43;;;;;;;3.22;2.63;;;25.50;60.40;;;;;;5007618;28;20041;-53
2023/08/24 07:22:09;;;;;;;4.68;2.92;;;25.50;60.10;;;;;;5012050;28;20070;-52
2023/08/24 07:24:36;;;;;;;5.07;2.72;;;25.50;59.70;;;;;;5011283;28;20453;-52
2023/08/24 07:27:03;;;;;;;4.00;2.58;;;25.50;59.70;;;;;;5006083;28;20512;-52
2023/08/24 07:29:29;;;;;;;6.03;2.90;;;25.50;59.70;;;;;;5012051;28;20057;-55
2023/08/24 07:31:54;;;;;;;4.05;2.40;;;25.50;59.40;;;;;;5008863;28;20076;-55
2023/08/24 07:34:22;;;;;;;4.25;2.50;;;25.50;59.60;;;;;;5010209;28;20022;-52
2023/08/24 07:36:48;;;;;;;3.95;2.53;;;25.50;59.40;;;;;;5011320;28;20029;-53
2023/08/24 07:39:15;;;;;;;4.93;2.40;;;25.60;59.30;;;;;;5008413;28;20049;-53
2023/08/24 07:41:41;;;;;;;5.85;2.80;;;25.50;58.90;;;;;;5009343;28;20041;-53
2023/08/24 07:44:07;;;;;;;3.15;2.40;;;25.50;58.80;;;;;;5010285;28;20021;-54
2023/08/24 07:46:33;;;;;;;4.78;2.88;;;25.50;58.50;;;;;;5009375;28;20439;-53
2023/08/24 07:48:59;;;;;;;2.80;2.45;;;25.50;57.90;;;;;;5010014;28;20030;-53
2023/08/24 07:51:24;;;;;;;3.70;2.40;;;25.50;58.10;;;;;;5011073;28;20232;-53
2023/08/24 07:53:52;;;;;;;3.53;2.03;;;25.60;57.90;;;;;;5008164;28;20034;-52
2023/08/24 07:56:22;;;;;;;3.30;2.40;;;25.50;57.90;;;;;;5008455;28;20030;-52
2023/08/24 07:58:48;;;;;;;4.32;2.30;;;25.50;57.80;;;;;;5007668;28;20157;-54
2023/08/24 08:01:14;;;;;;;2.75;2.30;;;25.50;57.40;;;;;;5011113;28;20963;-54
2023/08/24 08:03:39;;;;;;;3.03;2.15;;;25.60;57.10;;;;;;5009992;28;20168;-53
2023/08/24 08:06:05;;;;;;;4.70;2.38;;;25.50;56.90;;;;;;5009926;28;20494;-52
2023/08/24 08:08:30;;;;;;;3.42;2.20;;;25.60;56.90;;;;;;5010620;28;20087;-53
2023/08/24 08:11:01;;;;;;;2.10;1.90;;;25.50;56.90;;;;;;5007456;28;20090;-52
2023/08/24 08:13:28;;;;;;;2.33;2.13;;;25.60;56.40;;;;;;5009404;28;20029;-53
2023/08/24 08:15:54;;;;;;;2.42;1.75;;;25.50;56.20;;;;;;5009969;28;20105;-53
2023/08/24 08:18:19;;;;;;;3.40;2.10;;;25.50;56.40;;;;;;5007358;28;20149;-53
2023/08/24 08:20:45;;;;;;;1.70;1.60;;;25.50;56.20;;;;;;5003765;28;20389;-55
2023/08/24 08:23:10;;;;;;;3.03;2.17;;;25.50;56.00;;;;;;5004291;28;20049;-53
2023/08/24 08:25:36;;;;;;;3.65;2.35;;;25.60;56.10;;;;;;5010512;28;20129;-54
2023/08/24 08:28:02;;;;;;;2.60;2.25;;;25.60;55.50;;;;;;5004366;28;20029;-53
2023/08/24 08:30:27;;;;;;;2.83;1.95;;;25.50;55.20;;;;;;5003657;28;20346;-53
2023/08/24 08:32:54;;;;;;;2.92;1.95;;;25.60;55.60;;;;;;5010282;28;20120;-53
2023/08/24 08:35:21;;;;;;;3.30;2.28;;;25.60;55.40;;;;;;5011997;28;20022;-52
2023/08/24 08:37:49;;;;;;;3.53;2.15;;;25.60;54.90;;;;;;5006406;28;20029;-53
2023/08/24 08:40:17;;;;;;;2.20;2.00;;;25.60;54.90;;;;;;5002465;28;20290;-51
2023/08/24 08:42:43;;;;;;;3.10;2.05;;;25.50;55.00;;;;;;5008071;28;20037;-52
2023/08/24 08:45:10;;;;;;;2.20;2.00;;;25.50;55.10;;;;;;5009754;28;20393;-53
2023/08/24 08:47:37;;;;;;;2.58;2.38;;;25.50;55.20;;;;;;5008094;28;20030;-53
2023/08/24 08:50:03;;;;;;;4.20;2.25;;;25.50;55.20;;;;;;5009398;28;20185;-53
2023/08/24 08:52:29;;;;;;;2.42;2.05;;;25.50;55.00;;;;;;5002278;28;20045;-54
2023/08/24 08:54:55;;;;;;;3.47;2.20;;;25.50;54.90;;;;;;5006047;28;20076;-53
2023/08/24 08:57:25;;;;;;;2.35;2.15;;;25.50;55.10;;;;;;5001093;28;20097;-54
2023/08/24 08:59:52;;;;;;;2.23;2.00;;;25.50;55.60;;;;;;5009740;28;20032;-53
2023/08/24 09:02:20;;;;;;;2.92;2.20;;;25.50;55.00;;;;;;5008239;28;20041;-53
2023/08/24 09:04:47;;;;;;;4.00;2.80;;;25.50;55.10;;;;;;5008522;28;20587;-54
2023/08/24 09:07:16;;;;;;;3.65;1.75;;;25.40;55.30;;;;;;5005103;28;20044;-52
2023/08/24 09:09:42;;;;;;;2.90;2.28;;;25.50;55.40;;;;;;5006982;28;20030;-54
2023/08/24 09:12:08;;;;;;;4.80;2.55;;;25.50;55.50;;;;;;5009693;28;20030;-52
2023/08/24 09:14:34;;;;;;;2.83;1.95;;;25.40;55.30;;;;;;5011679;28;20091;-53
2023/08/24 09:17:00;;;;;;;10.35;2.50;;;25.40;55.20;;;;;;5005656;28;20026;-52
2023/08/24 09:19:35;;;;;;;2.20;2.00;;;25.50;55.30;;;;;;5006296;28;20022;-53
2023/08/24 09:22:02;;;;;;;8.88;3.22;;;25.40;55.50;;;;;;5007462;28;20113;-54
2023/08/24 09:24:35;;;;;;;4.88;2.38;;;25.40;55.40;;;;;;5007991;28;20042;-54
2023/08/24 09:27:16;;;;;;;2.60;2.40;;;25.40;55.50;;;;;;5004799;28;20207;-55
2023/08/24 09:29:41;;;;;;;4.30;2.67;;;25.40;55.70;;;;;;5012496;28;20033;-54
2023/08/24 09:32:09;;;;;;;2.70;2.17;;;25.40;55.70;;;;;;5009689;28;20116;-53
2023/08/24 09:34:36;;;;;;;3.67;2.17;;;25.40;55.90;;;;;;5005482;28;20033;-53
2023/08/24 09:37:04;;;;;;;3.25;2.33;;;25.40;55.80;;;;;;5003154;28;20049;-53
2023/08/24 09:39:29;;;;;;;5.13;2.28;;;25.40;55.80;;;;;;5001172;28;20037;-52
2023/08/24 09:42:03;;;;;;;2.70;2.13;;;25.40;56.00;;;;;;5010758;28;20037;-51
2023/08/24 09:44:29;;;;;;;4.20;2.40;;;25.30;55.90;;;;;;5004163;28;20113;-52
2023/08/24 09:46:55;;;;;;;2.55;2.30;;;25.30;56.00;;;;;;5008557;28;20120;-52
2023/08/24 09:49:21;;;;;;;2.58;2.13;;;25.30;55.90;;;;;;5009214;28;20037;-52
2023/08/24 09:51:48;;;;;;;3.20;2.30;;;25.30;55.90;;;;;;5008681;28;20045;-53
2023/08/24 09:54:15;;;;;;;3.10;2.40;;;25.30;55.90;;;;;;5005384;28;20473;-54
2023/08/24 09:56:42;;;;;;;5.65;2.88;;;25.30;55.70;;;;;;5008892;28;20022;-52
2023/08/24 09:59:21;;;;;;;2.75;2.50;;;25.20;55.60;;;;;;5002518;28;20101;-51
2023/08/24 10:01:49;;;;;;;4.45;2.42;;;25.20;55.60;;;;;;5007190;28;20721;-52
2023/08/24 10:04:18;;;;;;;3.35;2.72;;;25.20;56.00;;;;;;5004138;28;20034;-51
2023/08/24 10:06:49;;;;;;;3.08;2.13;;;25.20;56.10;;;;;;5010082;28;20041;-53
2023/08/24 10:09:28;;;;;;;3.50;2.55;;;25.20;56.40;;;;;;5009792;28;20026;-51
2023/08/24 10:11:59;;;;;;;3.65;2.55;;;25.20;56.60;;;;;;5017676;28;20031;-54
2023/08/24 10:14:32;;;;;;;3.50;2.60;;;25.20;56.70;;;;;;5009441;28;20543;-53
2023/08/24 10:16:58;;;;;;;3.17;2.47;;;25.20;56.80;;;;;;5007304;28;20449;-53
2023/08/24 10:19:25;;;;;;;4.03;2.53;;;25.10;56.70;;;;;;5004904;28;20048;-53
2023/08/24 10:21:53;;;;;;;4.22;2.60;;;25.10;56.80;;;;;;5007262;28;20041;-53
2023/08/24 10:24:20;;;;;;;3.03;2.65;;;25.10;56.80;;;;;;5007729;28;20396;-53
2023/08/24 10:26:48;;;;;;;5.13;2.53;;;25.10;56.90;;;;;;5005028;28;20050;-53
2023/08/24 10:29:14;;;;;;;2.83;2.50;;;25.10;57.20;;;;;;5002258;28;20029;-52
2023/08/24 10:31:41;;;;;;;4.63;2.90;;;25.10;57.40;;;;;;5002252;28;20045;-53
2023/08/24 10:34:08;;;;;;;2.50;2.30;;;25.10;57.60;;;;;;5009966;28;20040;-52
2023/08/24 10:36:34;;;;;;;2.80;2.22;;;25.10;57.60;;;;;;5009587;28;20389;-53
2023/08/24 10:39:05;;;;;;;4.07;2.55;;;25.10;57.80;;;;;;5007215;28;20033;-55
2023/08/24 10:41:47;;;;;;;2.88;2.55;;;25.10;57.80;;;;;;5009637;28;20025;-53
2023/08/24 10:44:36;;;;;;;3.55;2.90;;;25.00;57.90;;;;;;5003881;28;20413;-51
2023/08/24 10:47:22;;;;;;;4.20;2.70;;;25.10;57.90;;;;;;5002559;28;20042;-54
2023/08/24 10:49:54;;;;;;;2.70;2.50;;;25.10;57.60;;;;;;5003927;28;20544;-54
2023/08/24 10:52:27;;;;;;;3.83;2.50;;;25.00;57.60;;;;;;5003078;28;20072;-52
2023/08/24 10:54:53;;;;;;;3.35;2.70;;;25.10;57.60;;;;;;5008869;28;20029;-52
2023/08/24 10:57:24;;;;;;;3.00;2.38;;;25.00;57.50;;;;;;5007533;28;20121;-53
2023/08/24 10:59:59;;;;;;;2.42;2.22;;;25.10;57.70;;;;;;5007345;28;20026;-54
2023/08/24 11:02:25;;;;;;;2.85;2.50;;;25.10;57.50;;;;;;5002282;28;20485;-54
2023/08/24 11:05:19;;;;;;;4.72;2.47;;;25.10;57.30;;;;;;4998098;28;20037;-53
2023/08/24 11:07:50;;;;;;;2.88;2.28;;;25.10;56.80;;;;;;5006629;28;20041;-51
2023/08/24 11:10:16;;;;;;;2.75;2.38;;;25.10;56.90;;;;;;5007180;28;20026;-52
2023/08/24 11:13:04;;;;;;;3.03;2.65;;;25.00;56.80;;;;;;5010181;28;20481;-51
2023/08/24 11:15:34;;;;;;;3.08;2.42;;;25.10;57.10;;;;;;5008630;28;20504;-52
2023/08/24 11:18:24;;;;;;;5.45;2.55;;;25.10;56.60;;;;;;5009137;28;20035;-51
2023/08/24 11:20:54;;;;;;;5.00;2.67;;;25.10;57.30;;;;;;5005858;28;20080;-52
2023/08/24 11:23:21;;;;;;;3.92;2.60;;;25.00;56.70;;;;;;5010323;28;20456;-51
2023/08/24 11:25:54;;;;;;;2.83;2.47;;;25.10;56.70;;;;;;5006659;28;20049;-53
2023/08/24 11:28:20;;;;;;;4.30;2.40;;;25.10;56.80;;;;;;5011389;28;20061;-52
2023/08/24 11:30:47;;;;;;;6.22;2.90;;;25.00;56.50;;;;;;5008326;28;20154;-53
2023/08/24 11:33:14;;;;;;;2.83;2.50;;;25.10;56.70;;;;;;5011552;28;20033;-52
2023/08/24 11:35:44;;;;;;;2.30;2.10;;;25.10;56.60;;;;;;5008537;28;21410;-52
2023/08/24 11:38:10;;;;;;;3.10;2.47;;;25.10;56.80;;;;;;5008846;28;20075;-55
2023/08/24 11:40:37;;;;;;;3.88;2.30;;;25.10;57.00;;;;;;5007128;28;20030;-51
2023/08/24 11:43:03;;;;;;;2.10;1.92;;;25.10;56.80;;;;;;5008197;28;20033;-52
2023/08/24 11:45:34;;;;;;;2.35;2.15;;;25.10;56.80;;;;;;5009047;28;20026;-53
2023/08/24 11:48:01;;;;;;;2.95;2.00;;;25.10;56.40;;;;;;5005557;28;20030;-52
2023/08/24 11:50:28;;;;;;;3.42;2.55;;;25.10;56.30;;;;;;5008228;28;20061;-52
2023/08/24 11:52:54;;;;;;;3.25;2.60;;;25.10;56.20;;;;;;5010332;28;20030;-52
2023/08/24 11:55:21;;;;;;;2.72;1.88;;;25.10;56.10;;;;;;5008674;28;20084;-51
2023/08/24 11:57:47;;;;;;;5.20;4.25;;;25.10;56.50;;;;;;5011316;28;20038;-52
2023/08/24 12:00:13;;;;;;;3.70;3.20;;;25.10;56.60;;;;;;5009462;28;20038;-51
2023/08/24 12:02:41;;;;;;;3.85;2.47;;;25.10;56.40;;;;;;5009959;28;20026;-52
2023/08/24 12:05:07;;;;;;;3.40;2.63;;;25.10;56.30;;;;;;5007449;28;20029;-50
2023/08/24 12:07:33;;;;;;;2.58;2.25;;;25.10;56.10;;;;;;5008379;28;20034;-51
2023/08/24 12:10:03;;;;;;;4.35;2.42;;;25.10;56.30;;;;;;5007619;28;20084;-50
2023/08/24 12:12:28;;;;;;;2.53;2.30;;;25.10;56.30;;;;;;5005591;28;20446;-50
2023/08/24 12:14:57;;;;;;;2.45;2.25;;;25.10;56.20;;;;;;5010188;28;20036;-52
2023/08/24 12:17:23;;;;;;;2.75;2.22;;;25.10;56.00;;;;;;5005523;28;20116;-53
2023/08/24 12:20:06;;;;;;;4.30;2.60;;;25.10;56.10;;;;;;5011511;28;20068;-52
2023/08/24 12:22:32;;;;;;;3.83;2.40;;;25.10;55.90;;;;;;5012017;28;20030;-51
2023/08/24 12:24:58;;;;;;;2.55;2.28;;;25.10;56.10;;;;;;5010493;28;20061;-51
2023/08/24 12:27:25;;;;;;;3.40;2.13;;;25.10;56.10;;;;;;5015404;28;20440;-51
2023/08/24 12:29:51;;;;;;;2.70;2.50;;;25.10;55.80;;;;;;5009867;28;20109;-51
2023/08/24 12:32:23;;;;;;;5.55;2.40;;;25.10;55.90;;;;;;5005354;28;20062;-52
2023/08/24 12:34:51;;;;;;;2.47;2.25;;;25.10;55.80;;;;;;5010786;28;20040;-51
2023/08/24 12:37:17;;;;;;;2.30;2.10;;;25.10;55.80;;;;;;5014034;28;20061;-50
2023/08/24 12:39:43;;;;;;;2.38;2.10;;;25.10;55.80;;;;;;5015705;28;20040;-51
2023/08/24 12:42:08;;;;;;;2.65;2.05;;;25.10;55.90;;;;;;5013937;28;20108;-51
2023/08/24 12:44:35;;;;;;;2.50;2.30;;;25.10;56.00;;;;;;5014436;28;20042;-51
2023/08/24 12:47:02;;;;;;;2.83;2.30;;;25.10;55.70;;;;;;5014723;28;20512;-50